sensor_id;sensor_type;location;lat;lon;timestamp;P1;durP1;ratioP1;P2;durP2;ratioP2
20593;SDS011;10455;48.732;10.266;2024-03-02T00:03:14;72.40;;;39.47;;
20593;SDS011;10455;48.732;10.266;2024-03-02T00:08:17;61.70;;;37.60;;
20593;SDS011;10455;48.732;10.266;2024-03-02T00:13:25;60.97;;;37.70;;
20593;SDS011;10455;48.732;10.266;2024-03-02T00:18:30;58.00;;;35.10;;
20593;SDS011;10455;48.732;10.266;2024-03-02T00:23:33;64.50;;;37.13;;
20593;SDS011;10455;48.732;10.266;2024-03-02T00:28:36;70.40;;;39.33;;
20593;SDS011;10455;48.732;10.266;2024-03-02T00:33:45;66.97;;;38.80;;
20593;SDS011;10455;48.732;10.266;2024-03-02T00:38:48;61.20;;;37.13;;
20593;SDS011;10455;48.732;10.266;2024-03-02T00:43:57;61.00;;;37.97;;
20593;SDS011;10455;48.732;10.266;2024-03-02T00:49:01;55.47;;;36.10;;
20593;SDS011;10455;48.732;10.266;2024-03-02T00:54:05;64.70;;;39.20;;
20593;SDS011;10455;48.732;10.266;2024-03-02T00:59:10;57.10;;;36.37;;
20593;SDS011;10455;48.732;10.266;2024-03-02T01:04:13;64.07;;;39.77;;
20593;SDS011;10455;48.732;10.266;2024-03-02T01:09:15;61.33;;;38.40;;
20593;SDS011;10455;48.732;10.266;2024-03-02T01:14:17;59.93;;;38.63;;
20593;SDS011;10455;48.732;10.266;2024-03-02T01:19:21;64.00;;;38.80;;
20593;SDS011;10455;48.732;10.266;2024-03-02T01:24:23;64.07;;;39.83;;
20593;SDS011;10455;48.732;10.266;2024-03-02T01:29:25;74.33;;;43.67;;
20593;SDS011;10455;48.732;10.266;2024-03-02T01:34:28;73.57;;;43.40;;
20593;SDS011;10455;48.732;10.266;2024-03-02T01:39:30;97.67;;;49.23;;
20593;SDS011;10455;48.732;10.266;2024-03-02T01:44:32;85.90;;;46.47;;
20593;SDS011;10455;48.732;10.266;2024-03-02T01:49:35;62.33;;;39.77;;
20593;SDS011;10455;48.732;10.266;2024-03-02T01:54:39;72.97;;;44.07;;
20593;SDS011;10455;48.732;10.266;2024-03-02T01:59:41;72.90;;;43.30;;
20593;SDS011;10455;48.732;10.266;2024-03-02T02:04:44;78.07;;;45.70;;
20593;SDS011;10455;48.732;10.266;2024-03-02T02:09:46;87.03;;;47.37;;
20593;SDS011;10455;48.732;10.266;2024-03-02T02:14:48;105.00;;;51.10;;
20593;SDS011;10455;48.732;10.266;2024-03-02T02:19:51;138.43;;;58.40;;
20593;SDS011;10455;48.732;10.266;2024-03-02T02:24:54;96.97;;;52.20;;
20593;SDS011;10455;48.732;10.266;2024-03-02T02:29:56;89.47;;;48.47;;
20593;SDS011;10455;48.732;10.266;2024-03-02T02:34:58;101.63;;;52.03;;
20593;SDS011;10455;48.732;10.266;2024-03-02T02:40:02;122.43;;;57.47;;
20593;SDS011;10455;48.732;10.266;2024-03-02T02:45:05;77.30;;;42.53;;
20593;SDS011;10455;48.732;10.266;2024-03-02T02:50:08;86.23;;;45.87;;
20593;SDS011;10455;48.732;10.266;2024-03-02T02:55:12;106.80;;;52.60;;
20593;SDS011;10455;48.732;10.266;2024-03-02T03:00:16;92.87;;;50.13;;
20593;SDS011;10455;48.732;10.266;2024-03-02T03:05:20;117.93;;;53.23;;
20593;SDS011;10455;48.732;10.266;2024-03-02T03:10:23;91.67;;;48.20;;
20593;SDS011;10455;48.732;10.266;2024-03-02T03:15:27;119.53;;;53.07;;
20593;SDS011;10455;48.732;10.266;2024-03-02T03:20:29;102.07;;;52.53;;
20593;SDS011;10455;48.732;10.266;2024-03-02T03:25:32;95.70;;;46.90;;
20593;SDS011;10455;48.732;10.266;2024-03-02T03:30:34;102.13;;;50.57;;
20593;SDS011;10455;48.732;10.266;2024-03-02T03:35:36;123.73;;;55.90;;
20593;SDS011;10455;48.732;10.266;2024-03-02T03:40:39;104.13;;;50.80;;
20593;SDS011;10455;48.732;10.266;2024-03-02T03:45:42;98.23;;;49.20;;
20593;SDS011;10455;48.732;10.266;2024-03-02T03:50:44;107.47;;;49.73;;
20593;SDS011;10455;48.732;10.266;2024-03-02T03:55:47;155.00;;;57.50;;
20593;SDS011;10455;48.732;10.266;2024-03-02T04:00:49;107.00;;;44.20;;
20593;SDS011;10455;48.732;10.266;2024-03-02T04:05:51;146.43;;;54.23;;
20593;SDS011;10455;48.732;10.266;2024-03-02T04:10:55;123.80;;;52.87;;
20593;SDS011;10455;48.732;10.266;2024-03-02T04:15:57;115.27;;;51.20;;
20593;SDS011;10455;48.732;10.266;2024-03-02T04:20:59;124.70;;;52.17;;
20593;SDS011;10455;48.732;10.266;2024-03-02T04:26:02;110.90;;;43.63;;
20593;SDS011;10455;48.732;10.266;2024-03-02T04:31:05;140.63;;;54.90;;
20593;SDS011;10455;48.732;10.266;2024-03-02T04:36:07;161.87;;;57.50;;
20593;SDS011;10455;48.732;10.266;2024-03-02T04:41:11;143.17;;;54.97;;
20593;SDS011;10455;48.732;10.266;2024-03-02T04:46:13;130.60;;;52.90;;
20593;SDS011;10455;48.732;10.266;2024-03-02T04:51:15;171.47;;;61.53;;
20593;SDS011;10455;48.732;10.266;2024-03-02T04:56:18;221.33;;;68.33;;
20593;SDS011;10455;48.732;10.266;2024-03-02T05:01:39;261.53;;;67.60;;
20593;SDS011;10455;48.732;10.266;2024-03-02T05:06:41;223.27;;;61.83;;
20593;SDS011;10455;48.732;10.266;2024-03-02T05:11:44;158.63;;;56.33;;
20593;SDS011;10455;48.732;10.266;2024-03-02T05:17:11;156.97;;;56.57;;
20593;SDS011;10455;48.732;10.266;2024-03-02T05:22:13;122.73;;;50.33;;
20593;SDS011;10455;48.732;10.266;2024-03-02T05:27:16;94.27;;;41.87;;
20593;SDS011;10455;48.732;10.266;2024-03-02T05:32:18;125.70;;;50.60;;
20593;SDS011;10455;48.732;10.266;2024-03-02T05:37:20;112.17;;;47.73;;
20593;SDS011;10455;48.732;10.266;2024-03-02T05:42:23;113.03;;;48.83;;
20593;SDS011;10455;48.732;10.266;2024-03-02T05:47:25;111.73;;;50.03;;
20593;SDS011;10455;48.732;10.266;2024-03-02T05:52:27;103.63;;;46.77;;
20593;SDS011;10455;48.732;10.266;2024-03-02T05:57:31;112.83;;;47.37;;
20593;SDS011;10455;48.732;10.266;2024-03-02T06:02:45;107.23;;;46.50;;
20593;SDS011;10455;48.732;10.266;2024-03-02T06:07:47;104.63;;;49.90;;
20593;SDS011;10455;48.732;10.266;2024-03-02T06:12:50;115.70;;;51.53;;
20593;SDS011;10455;48.732;10.266;2024-03-02T06:17:52;119.40;;;51.43;;
20593;SDS011;10455;48.732;10.266;2024-03-02T06:22:54;121.80;;;53.37;;
20593;SDS011;10455;48.732;10.266;2024-03-02T06:27:57;107.03;;;48.40;;
20593;SDS011;10455;48.732;10.266;2024-03-02T06:32:59;118.07;;;50.23;;
20593;SDS011;10455;48.732;10.266;2024-03-02T06:38:01;96.80;;;48.17;;
20593;SDS011;10455;48.732;10.266;2024-03-02T06:43:05;115.23;;;49.87;;
20593;SDS011;10455;48.732;10.266;2024-03-02T06:48:07;98.40;;;46.30;;
20593;SDS011;10455;48.732;10.266;2024-03-02T06:53:09;95.30;;;47.30;;
20593;SDS011;10455;48.732;10.266;2024-03-02T06:58:12;107.37;;;48.10;;
20593;SDS011;10455;48.732;10.266;2024-03-02T07:03:15;73.77;;;44.37;;
20593;SDS011;10455;48.732;10.266;2024-03-02T07:08:17;88.77;;;46.60;;
20593;SDS011;10455;48.732;10.266;2024-03-02T07:13:20;92.20;;;47.57;;
20593;SDS011;10455;48.732;10.266;2024-03-02T07:18:22;83.73;;;44.57;;
20593;SDS011;10455;48.732;10.266;2024-03-02T07:23:24;48.60;;;35.47;;
20593;SDS011;10455;48.732;10.266;2024-03-02T07:28:28;42.97;;;32.00;;
20593;SDS011;10455;48.732;10.266;2024-03-02T07:33:30;47.10;;;35.53;;
20593;SDS011;10455;48.732;10.266;2024-03-02T07:38:32;48.50;;;36.63;;
20593;SDS011;10455;48.732;10.266;2024-03-02T07:43:36;79.07;;;33.20;;
20593;SDS011;10455;48.732;10.266;2024-03-02T07:48:38;41.50;;;28.63;;
20593;SDS011;10455;48.732;10.266;2024-03-02T07:53:40;29.13;;;25.83;;
20593;SDS011;10455;48.732;10.266;2024-03-02T07:58:43;30.20;;;26.90;;
20593;SDS011;10455;48.732;10.266;2024-03-02T08:03:48;27.77;;;24.33;;
20593;SDS011;10455;48.732;10.266;2024-03-02T08:08:50;22.07;;;19.40;;
20593;SDS011;10455;48.732;10.266;2024-03-02T08:13:54;26.07;;;23.27;;
20593;SDS011;10455;48.732;10.266;2024-03-02T08:18:56;25.13;;;22.00;;
20593;SDS011;10455;48.732;10.266;2024-03-02T08:23:58;25.43;;;22.60;;
20593;SDS011;10455;48.732;10.266;2024-03-02T08:29:01;24.17;;;21.57;;
20593;SDS011;10455;48.732;10.266;2024-03-02T08:34:03;19.70;;;17.63;;
20593;SDS011;10455;48.732;10.266;2024-03-02T08:39:05;18.10;;;16.20;;
20593;SDS011;10455;48.732;10.266;2024-03-02T08:44:16;23.88;;;16.25;;
20593;SDS011;10455;48.732;10.266;2024-03-02T08:49:18;14.57;;;13.18;;
20593;SDS011;10455;48.732;10.266;2024-03-02T08:54:20;14.82;;;13.40;;
20593;SDS011;10455;48.732;10.266;2024-03-02T08:59:23;15.05;;;13.60;;
20593;SDS011;10455;48.732;10.266;2024-03-02T09:04:27;13.38;;;12.13;;
20593;SDS011;10455;48.732;10.266;2024-03-02T09:09:30;12.55;;;11.45;;
20593;SDS011;10455;48.732;10.266;2024-03-02T09:14:34;12.27;;;11.07;;
20593;SDS011;10455;48.732;10.266;2024-03-02T09:19:37;12.30;;;11.20;;
20593;SDS011;10455;48.732;10.266;2024-03-02T09:24:39;13.50;;;12.27;;
20593;SDS011;10455;48.732;10.266;2024-03-02T09:29:42;11.07;;;10.18;;
20593;SDS011;10455;48.732;10.266;2024-03-02T09:34:45;11.57;;;10.57;;
20593;SDS011;10455;48.732;10.266;2024-03-02T09:39:48;9.70;;;8.93;;
20593;SDS011;10455;48.732;10.266;2024-03-02T09:44:51;11.07;;;10.13;;
20593;SDS011;10455;48.732;10.266;2024-03-02T09:49:54;9.43;;;8.63;;
20593;SDS011;10455;48.732;10.266;2024-03-02T09:54:56;9.07;;;8.38;;
20593;SDS011;10455;48.732;10.266;2024-03-02T09:59:59;9.25;;;8.50;;
20593;SDS011;10455;48.732;10.266;2024-03-02T10:05:02;8.77;;;8.07;;
20593;SDS011;10455;48.732;10.266;2024-03-02T10:10:14;8.77;;;8.00;;
20593;SDS011;10455;48.732;10.266;2024-03-02T10:15:24;9.70;;;8.80;;
20593;SDS011;10455;48.732;10.266;2024-03-02T10:20:27;8.25;;;7.65;;
20593;SDS011;10455;48.732;10.266;2024-03-02T10:25:30;8.75;;;8.05;;
20593;SDS011;10455;48.732;10.266;2024-03-02T10:30:34;8.07;;;7.47;;
20593;SDS011;10455;48.732;10.266;2024-03-02T10:35:36;7.00;;;6.50;;
20593;SDS011;10455;48.732;10.266;2024-03-02T10:40:40;6.50;;;6.10;;
20593;SDS011;10455;48.732;10.266;2024-03-02T10:45:44;6.05;;;5.57;;
20593;SDS011;10455;48.732;10.266;2024-03-02T10:50:48;5.82;;;5.43;;
20593;SDS011;10455;48.732;10.266;2024-03-02T10:55:51;7.55;;;6.40;;
20593;SDS011;10455;48.732;10.266;2024-03-02T11:01:02;6.05;;;5.55;;
20593;SDS011;10455;48.732;10.266;2024-03-02T11:06:05;7.30;;;5.90;;
20593;SDS011;10455;48.732;10.266;2024-03-02T11:11:12;7.00;;;6.32;;
20593;SDS011;10455;48.732;10.266;2024-03-02T11:16:21;5.30;;;4.85;;
20593;SDS011;10455;48.732;10.266;2024-03-02T11:21:32;5.60;;;5.20;;
20593;SDS011;10455;48.732;10.266;2024-03-02T11:26:37;8.30;;;7.70;;
20593;SDS011;10455;48.732;10.266;2024-03-02T11:32:00;6.95;;;6.45;;
20593;SDS011;10455;48.732;10.266;2024-03-02T11:37:02;6.10;;;5.60;;
20593;SDS011;10455;48.732;10.266;2024-03-02T11:42:05;6.38;;;5.88;;
20593;SDS011;10455;48.732;10.266;2024-03-02T11:47:10;7.75;;;7.15;;
20593;SDS011;10455;48.732;10.266;2024-03-02T11:52:15;7.43;;;6.82;;
20593;SDS011;10455;48.732;10.266;2024-03-02T11:57:18;7.07;;;6.60;;
20593;SDS011;10455;48.732;10.266;2024-03-02T12:02:23;7.38;;;6.78;;
20593;SDS011;10455;48.732;10.266;2024-03-02T12:07:25;6.90;;;6.32;;
20593;SDS011;10455;48.732;10.266;2024-03-02T12:12:28;6.38;;;5.97;;
20593;SDS011;10455;48.732;10.266;2024-03-02T12:17:31;7.47;;;6.78;;
20593;SDS011;10455;48.732;10.266;2024-03-02T12:22:33;7.20;;;6.60;;
20593;SDS011;10455;48.732;10.266;2024-03-02T12:27:35;8.00;;;7.40;;
20593;SDS011;10455;48.732;10.266;2024-03-02T12:32:38;6.72;;;6.25;;
20593;SDS011;10455;48.732;10.266;2024-03-02T12:37:42;7.18;;;6.68;;
20593;SDS011;10455;48.732;10.266;2024-03-02T12:42:44;7.07;;;6.57;;
20593;SDS011;10455;48.732;10.266;2024-03-02T12:47:49;7.28;;;6.78;;
20593;SDS011;10455;48.732;10.266;2024-03-02T12:52:52;6.68;;;6.22;;
20593;SDS011;10455;48.732;10.266;2024-03-02T12:57:54;6.93;;;6.35;;
20593;SDS011;10455;48.732;10.266;2024-03-02T13:02:58;6.05;;;5.65;;
20593;SDS011;10455;48.732;10.266;2024-03-02T13:08:02;6.70;;;6.10;;
20593;SDS011;10455;48.732;10.266;2024-03-02T13:13:05;6.70;;;6.10;;
20593;SDS011;10455;48.732;10.266;2024-03-02T13:18:08;7.50;;;7.00;;
20593;SDS011;10455;48.732;10.266;2024-03-02T13:23:10;6.35;;;5.95;;
20593;SDS011;10455;48.732;10.266;2024-03-02T13:28:12;6.28;;;5.78;;
20593;SDS011;10455;48.732;10.266;2024-03-02T13:33:16;7.07;;;6.57;;
20593;SDS011;10455;48.732;10.266;2024-03-02T13:38:22;6.43;;;6.03;;
20593;SDS011;10455;48.732;10.266;2024-03-02T13:43:24;6.43;;;5.93;;
20593;SDS011;10455;48.732;10.266;2024-03-02T13:48:28;5.82;;;5.43;;
20593;SDS011;10455;48.732;10.266;2024-03-02T13:53:30;10.13;;;9.27;;
20593;SDS011;10455;48.732;10.266;2024-03-02T13:58:33;8.32;;;7.72;;
20593;SDS011;10455;48.732;10.266;2024-03-02T14:03:37;7.45;;;6.85;;
20593;SDS011;10455;48.732;10.266;2024-03-02T14:08:39;9.25;;;8.52;;
20593;SDS011;10455;48.732;10.266;2024-03-02T14:13:44;8.80;;;8.00;;
20593;SDS011;10455;48.732;10.266;2024-03-02T14:18:51;11.95;;;10.88;;
20593;SDS011;10455;48.732;10.266;2024-03-02T14:23:52;11.90;;;10.85;;
20593;SDS011;10455;48.732;10.266;2024-03-02T14:28:55;11.80;;;10.70;;
20593;SDS011;10455;48.732;10.266;2024-03-02T14:33:58;11.50;;;10.50;;
20593;SDS011;10455;48.732;10.266;2024-03-02T14:39:01;13.73;;;11.10;;
20593;SDS011;10455;48.732;10.266;2024-03-02T14:44:04;14.10;;;12.70;;
20593;SDS011;10455;48.732;10.266;2024-03-02T14:49:08;14.40;;;12.93;;
20593;SDS011;10455;48.732;10.266;2024-03-02T14:54:10;14.00;;;12.60;;
20593;SDS011;10455;48.732;10.266;2024-03-02T14:59:12;15.88;;;13.73;;
20593;SDS011;10455;48.732;10.266;2024-03-02T15:04:16;14.43;;;13.00;;
20593;SDS011;10455;48.732;10.266;2024-03-02T15:09:19;18.15;;;15.65;;
20593;SDS011;10455;48.732;10.266;2024-03-02T15:14:21;16.88;;;15.07;;
20593;SDS011;10455;48.732;10.266;2024-03-02T15:19:24;17.65;;;15.32;;
20593;SDS011;10455;48.732;10.266;2024-03-02T15:24:26;13.68;;;12.27;;
20593;SDS011;10455;48.732;10.266;2024-03-02T15:29:31;15.43;;;13.80;;
20593;SDS011;10455;48.732;10.266;2024-03-02T15:34:34;19.40;;;16.58;;
20593;SDS011;10455;48.732;10.266;2024-03-02T15:39:36;23.17;;;17.83;;
20593;SDS011;10455;48.732;10.266;2024-03-02T15:44:38;21.25;;;16.55;;
20593;SDS011;10455;48.732;10.266;2024-03-02T15:49:42;22.27;;;16.77;;
20593;SDS011;10455;48.732;10.266;2024-03-02T15:54:44;20.75;;;16.67;;
20593;SDS011;10455;48.732;10.266;2024-03-02T15:59:46;23.77;;;18.48;;
20593;SDS011;10455;48.732;10.266;2024-03-02T16:04:49;25.08;;;18.98;;
20593;SDS011;10455;48.732;10.266;2024-03-02T16:09:51;23.70;;;19.40;;
20593;SDS011;10455;48.732;10.266;2024-03-02T16:14:53;24.67;;;20.47;;
20593;SDS011;10455;48.732;10.266;2024-03-02T16:19:57;26.23;;;22.23;;
20593;SDS011;10455;48.732;10.266;2024-03-02T16:24:59;25.37;;;20.30;;
20593;SDS011;10455;48.732;10.266;2024-03-02T16:30:00;27.13;;;20.60;;
20593;SDS011;10455;48.732;10.266;2024-03-02T16:35:05;25.50;;;21.10;;
20593;SDS011;10455;48.732;10.266;2024-03-02T16:40:08;28.63;;;22.80;;
20593;SDS011;10455;48.732;10.266;2024-03-02T16:45:10;27.93;;;22.77;;
20593;SDS011;10455;48.732;10.266;2024-03-02T16:50:14;30.47;;;23.10;;
20593;SDS011;10455;48.732;10.266;2024-03-02T16:55:16;32.80;;;24.73;;
20593;SDS011;10455;48.732;10.266;2024-03-02T17:00:19;32.83;;;25.00;;
20593;SDS011;10455;48.732;10.266;2024-03-02T17:05:22;30.57;;;24.03;;
20593;SDS011;10455;48.732;10.266;2024-03-02T17:10:24;37.07;;;27.17;;
20593;SDS011;10455;48.732;10.266;2024-03-02T17:15:26;36.30;;;27.73;;
20593;SDS011;10455;48.732;10.266;2024-03-02T17:20:29;35.13;;;26.87;;
20593;SDS011;10455;48.732;10.266;2024-03-02T17:25:31;36.10;;;29.10;;
20593;SDS011;10455;48.732;10.266;2024-03-02T17:30:33;42.37;;;37.73;;
20593;SDS011;10455;48.732;10.266;2024-03-02T17:35:37;42.03;;;32.37;;
20593;SDS011;10455;48.732;10.266;2024-03-02T17:40:39;41.43;;;32.23;;
20593;SDS011;10455;48.732;10.266;2024-03-02T17:45:41;39.77;;;30.97;;
20593;SDS011;10455;48.732;10.266;2024-03-02T17:50:44;45.70;;;32.77;;
20593;SDS011;10455;48.732;10.266;2024-03-02T17:55:46;45.60;;;31.87;;
20593;SDS011;10455;48.732;10.266;2024-03-02T18:00:48;50.77;;;33.93;;
20593;SDS011;10455;48.732;10.266;2024-03-02T18:05:51;42.60;;;31.07;;
20593;SDS011;10455;48.732;10.266;2024-03-02T18:10:53;48.80;;;33.17;;
20593;SDS011;10455;48.732;10.266;2024-03-02T18:15:55;51.47;;;35.40;;
20593;SDS011;10455;48.732;10.266;2024-03-02T18:20:58;47.60;;;35.50;;
20593;SDS011;10455;48.732;10.266;2024-03-02T18:26:01;61.63;;;39.63;;
20593;SDS011;10455;48.732;10.266;2024-03-02T18:31:03;53.37;;;36.13;;
20593;SDS011;10455;48.732;10.266;2024-03-02T18:36:07;55.37;;;35.83;;
20593;SDS011;10455;48.732;10.266;2024-03-02T18:41:10;51.57;;;35.87;;
20593;SDS011;10455;48.732;10.266;2024-03-02T18:46:12;61.73;;;35.40;;
20593;SDS011;10455;48.732;10.266;2024-03-02T18:51:15;51.77;;;34.20;;
20593;SDS011;10455;48.732;10.266;2024-03-02T18:56:17;54.30;;;35.47;;
20593;SDS011;10455;48.732;10.266;2024-03-02T19:01:19;51.07;;;34.40;;
20593;SDS011;10455;48.732;10.266;2024-03-02T19:06:22;47.53;;;31.83;;
20593;SDS011;10455;48.732;10.266;2024-03-02T19:11:24;56.30;;;35.27;;
20593;SDS011;10455;48.732;10.266;2024-03-02T19:16:26;56.43;;;34.00;;
20593;SDS011;10455;48.732;10.266;2024-03-02T19:21:30;54.63;;;35.57;;
20593;SDS011;10455;48.732;10.266;2024-03-02T19:26:32;60.10;;;36.57;;
20593;SDS011;10455;48.732;10.266;2024-03-02T19:31:34;52.97;;;35.13;;
20593;SDS011;10455;48.732;10.266;2024-03-02T19:36:37;59.27;;;36.00;;
20593;SDS011;10455;48.732;10.266;2024-03-02T19:41:39;56.70;;;36.47;;
20593;SDS011;10455;48.732;10.266;2024-03-02T19:46:42;60.20;;;36.03;;
20593;SDS011;10455;48.732;10.266;2024-03-02T19:51:45;57.47;;;35.63;;
20593;SDS011;10455;48.732;10.266;2024-03-02T19:56:47;57.77;;;36.90;;
20593;SDS011;10455;48.732;10.266;2024-03-02T20:01:51;57.97;;;34.23;;
20593;SDS011;10455;48.732;10.266;2024-03-02T20:06:57;64.80;;;34.83;;
20593;SDS011;10455;48.732;10.266;2024-03-02T20:12:01;56.10;;;34.43;;
20593;SDS011;10455;48.732;10.266;2024-03-02T20:17:08;59.43;;;34.77;;
20593;SDS011;10455;48.732;10.266;2024-03-02T20:22:12;59.37;;;35.80;;
20593;SDS011;10455;48.732;10.266;2024-03-02T20:27:15;59.97;;;37.97;;
20593;SDS011;10455;48.732;10.266;2024-03-02T20:32:18;61.10;;;38.47;;
20593;SDS011;10455;48.732;10.266;2024-03-02T20:37:22;63.60;;;38.40;;
20593;SDS011;10455;48.732;10.266;2024-03-02T20:42:24;66.57;;;37.90;;
20593;SDS011;10455;48.732;10.266;2024-03-02T20:47:27;54.07;;;34.40;;
20593;SDS011;10455;48.732;10.266;2024-03-02T20:52:31;61.80;;;36.80;;
20593;SDS011;10455;48.732;10.266;2024-03-02T20:57:33;64.33;;;36.87;;
20593;SDS011;10455;48.732;10.266;2024-03-02T21:02:35;63.40;;;38.17;;
20593;SDS011;10455;48.732;10.266;2024-03-02T21:07:39;60.80;;;37.90;;
20593;SDS011;10455;48.732;10.266;2024-03-02T21:12:41;64.17;;;38.13;;
20593;SDS011;10455;48.732;10.266;2024-03-02T21:17:43;68.03;;;40.10;;
20593;SDS011;10455;48.732;10.266;2024-03-02T21:22:47;58.80;;;37.77;;
20593;SDS011;10455;48.732;10.266;2024-03-02T21:27:51;58.93;;;37.53;;
20593;SDS011;10455;48.732;10.266;2024-03-02T21:32:54;61.57;;;37.57;;
20593;SDS011;10455;48.732;10.266;2024-03-02T21:37:58;59.77;;;37.23;;
20593;SDS011;10455;48.732;10.266;2024-03-02T21:43:03;57.43;;;35.63;;
20593;SDS011;10455;48.732;10.266;2024-03-02T21:48:06;58.53;;;36.53;;
20593;SDS011;10455;48.732;10.266;2024-03-02T21:53:10;61.20;;;36.80;;
20593;SDS011;10455;48.732;10.266;2024-03-02T21:58:13;56.07;;;35.43;;
20593;SDS011;10455;48.732;10.266;2024-03-02T22:03:15;60.07;;;35.23;;
20593;SDS011;10455;48.732;10.266;2024-03-02T22:08:19;56.43;;;36.27;;
20593;SDS011;10455;48.732;10.266;2024-03-02T22:13:21;74.20;;;45.00;;
20593;SDS011;10455;48.732;10.266;2024-03-02T22:18:23;72.67;;;42.20;;
20593;SDS011;10455;48.732;10.266;2024-03-02T22:23:26;103.30;;;52.00;;
20593;SDS011;10455;48.732;10.266;2024-03-02T22:28:30;101.20;;;52.83;;
20593;SDS011;10455;48.732;10.266;2024-03-02T22:33:32;119.30;;;56.57;;
20593;SDS011;10455;48.732;10.266;2024-03-02T22:38:36;106.60;;;54.20;;
20593;SDS011;10455;48.732;10.266;2024-03-02T22:43:38;100.47;;;50.10;;
20593;SDS011;10455;48.732;10.266;2024-03-02T22:48:40;104.33;;;46.83;;
20593;SDS011;10455;48.732;10.266;2024-03-02T22:53:44;126.67;;;64.53;;
20593;SDS011;10455;48.732;10.266;2024-03-02T22:58:46;158.10;;;74.37;;
20593;SDS011;10455;48.732;10.266;2024-03-02T23:03:48;134.27;;;59.50;;
20593;SDS011;10455;48.732;10.266;2024-03-02T23:08:51;128.90;;;58.23;;
20593;SDS011;10455;48.732;10.266;2024-03-02T23:13:54;156.30;;;63.03;;
20593;SDS011;10455;48.732;10.266;2024-03-02T23:18:56;115.03;;;54.80;;
20593;SDS011;10455;48.732;10.266;2024-03-02T23:23:59;129.33;;;59.23;;
20593;SDS011;10455;48.732;10.266;2024-03-02T23:29:01;179.07;;;71.67;;
20593;SDS011;10455;48.732;10.266;2024-03-02T23:34:03;136.40;;;57.23;;
20593;SDS011;10455;48.732;10.266;2024-03-02T23:39:06;137.73;;;56.17;;
20593;SDS011;10455;48.732;10.266;2024-03-02T23:44:10;107.53;;;49.90;;
20593;SDS011;10455;48.732;10.266;2024-03-02T23:49:13;138.90;;;58.30;;
20593;SDS011;10455;48.732;10.266;2024-03-02T23:54:17;88.70;;;41.93;;
20593;SDS011;10455;48.732;10.266;2024-03-02T23:59:21;130.23;;;54.87;;
